sensor_id;sensor_type;location;lat;lon;timestamp;P1;durP1;ratioP1;P2;durP2;ratioP2
48795;SDS011;34607;48.520;-1.330;2023-05-20T07:14:36;22.60;;;12.48;;
48795;SDS011;34607;48.520;-1.330;2023-05-20T07:17:04;24.10;;;13.50;;
48795;SDS011;34607;48.520;-1.330;2023-05-20T07:19:31;24.70;;;13.05;;
48795;SDS011;34607;48.520;-1.330;2023-05-20T07:21:58;22.08;;;12.00;;
48795;SDS011;34607;48.520;-1.330;2023-05-20T07:24:44;25.75;;;12.50;;
48795;SDS011;34607;48.520;-1.330;2023-05-20T07:27:11;21.17;;;13.05;;
48795;SDS011;34607;48.520;-1.330;2023-05-20T07:29:39;23.73;;;11.82;;
48795;SDS011;34607;48.520;-1.330;2023-05-20T07:32:07;26.33;;;10.85;;
48795;SDS011;34607;48.520;-1.330;2023-05-20T07:34:36;20.83;;;12.00;;
48795;SDS011;34607;48.520;-1.330;2023-05-20T07:37:03;26.45;;;12.20;;
48795;SDS011;34607;48.520;-1.330;2023-05-20T07:39:30;28.80;;;12.45;;
48795;SDS011;34607;48.520;-1.330;2023-05-20T07:41:57;18.63;;;11.57;;
48795;SDS011;34607;48.520;-1.330;2023-05-20T07:44:25;21.48;;;11.05;;
48795;SDS011;34607;48.520;-1.330;2023-05-20T07:46:55;30.40;;;13.07;;
48795;SDS011;34607;48.520;-1.330;2023-05-20T07:49:22;19.90;;;10.18;;
48795;SDS011;34607;48.520;-1.330;2023-05-20T07:51:49;21.05;;;10.85;;
48795;SDS011;34607;48.520;-1.330;2023-05-20T07:54:16;21.08;;;10.95;;
48795;SDS011;34607;48.520;-1.330;2023-05-20T07:56:46;23.27;;;10.95;;
48795;SDS011;34607;48.520;-1.330;2023-05-20T07:59:13;25.38;;;10.20;;
48795;SDS011;34607;48.520;-1.330;2023-05-20T08:01:46;21.48;;;11.00;;
48795;SDS011;34607;48.520;-1.330;2023-05-20T08:04:17;15.38;;;8.80;;
48795;SDS011;34607;48.520;-1.330;2023-05-20T08:06:45;18.63;;;9.95;;
48795;SDS011;34607;48.520;-1.330;2023-05-20T08:09:19;20.20;;;9.65;;
48795;SDS011;34607;48.520;-1.330;2023-05-20T08:11:50;15.07;;;9.02;;
48795;SDS011;34607;48.520;-1.330;2023-05-20T08:14:17;26.25;;;9.43;;
48795;SDS011;34607;48.520;-1.330;2023-05-20T08:16:48;17.38;;;9.55;;
48795;SDS011;34607;48.520;-1.330;2023-05-20T08:19:16;18.08;;;8.95;;
48795;SDS011;34607;48.520;-1.330;2023-05-20T08:21:46;19.02;;;8.85;;
48795;SDS011;34607;48.520;-1.330;2023-05-20T08:24:13;24.75;;;9.85;;
48795;SDS011;34607;48.520;-1.330;2023-05-20T08:26:40;23.52;;;9.20;;
48795;SDS011;34607;48.520;-1.330;2023-05-20T08:29:07;17.80;;;8.35;;
48795;SDS011;34607;48.520;-1.330;2023-05-20T08:31:34;21.52;;;8.50;;
48795;SDS011;34607;48.520;-1.330;2023-05-20T08:34:01;19.02;;;8.85;;
48795;SDS011;34607;48.520;-1.330;2023-05-20T08:36:30;19.45;;;8.55;;
48795;SDS011;34607;48.520;-1.330;2023-05-20T08:38:58;21.80;;;8.38;;
48795;SDS011;34607;48.520;-1.330;2023-05-20T08:41:26;16.35;;;9.18;;
48795;SDS011;34607;48.520;-1.330;2023-05-20T08:43:54;17.10;;;8.38;;
48795;SDS011;34607;48.520;-1.330;2023-05-20T08:46:23;19.02;;;8.48;;
48795;SDS011;34607;48.520;-1.330;2023-05-20T08:48:53;16.08;;;8.82;;
48795;SDS011;34607;48.520;-1.330;2023-05-20T08:51:20;18.52;;;8.02;;
48795;SDS011;34607;48.520;-1.330;2023-05-20T08:53:53;20.77;;;8.25;;
48795;SDS011;34607;48.520;-1.330;2023-05-20T08:56:20;19.83;;;8.93;;
48795;SDS011;34607;48.520;-1.330;2023-05-20T08:58:51;16.35;;;8.38;;
48795;SDS011;34607;48.520;-1.330;2023-05-20T09:01:18;22.33;;;8.77;;
48795;SDS011;34607;48.520;-1.330;2023-05-20T09:03:49;17.52;;;8.10;;
48795;SDS011;34607;48.520;-1.330;2023-05-20T09:06:17;17.10;;;8.65;;
48795;SDS011;34607;48.520;-1.330;2023-05-20T09:08:45;15.75;;;8.18;;
48795;SDS011;34607;48.520;-1.330;2023-05-20T09:11:13;14.82;;;7.80;;
48795;SDS011;34607;48.520;-1.330;2023-05-20T09:13:40;20.75;;;8.43;;
48795;SDS011;34607;48.520;-1.330;2023-05-20T09:16:08;18.73;;;8.68;;
48795;SDS011;34607;48.520;-1.330;2023-05-20T09:18:37;16.42;;;7.75;;
48795;SDS011;34607;48.520;-1.330;2023-05-20T09:21:04;18.67;;;8.60;;
48795;SDS011;34607;48.520;-1.330;2023-05-20T09:23:32;20.35;;;9.30;;
48795;SDS011;34607;48.520;-1.330;2023-05-20T09:26:01;16.45;;;8.43;;
48795;SDS011;34607;48.520;-1.330;2023-05-20T09:28:31;17.33;;;8.40;;
48795;SDS011;34607;48.520;-1.330;2023-05-20T09:31:00;18.95;;;8.93;;
48795;SDS011;34607;48.520;-1.330;2023-05-20T09:33:27;15.15;;;7.72;;
48795;SDS011;34607;48.520;-1.330;2023-05-20T09:36:01;19.63;;;7.97;;
48795;SDS011;34607;48.520;-1.330;2023-05-20T09:38:29;15.87;;;8.43;;
48795;SDS011;34607;48.520;-1.330;2023-05-20T09:41:02;20.60;;;8.07;;
48795;SDS011;34607;48.520;-1.330;2023-05-20T09:43:33;16.40;;;8.88;;
48795;SDS011;34607;48.520;-1.330;2023-05-20T09:46:01;19.45;;;9.27;;
48795;SDS011;34607;48.520;-1.330;2023-05-20T09:48:30;18.75;;;8.70;;
48795;SDS011;34607;48.520;-1.330;2023-05-20T09:50:58;17.20;;;8.45;;
48795;SDS011;34607;48.520;-1.330;2023-05-20T09:53:27;18.15;;;8.50;;
48795;SDS011;34607;48.520;-1.330;2023-05-20T09:55:54;15.25;;;8.32;;
48795;SDS011;34607;48.520;-1.330;2023-05-20T09:58:21;21.27;;;8.98;;
48795;SDS011;34607;48.520;-1.330;2023-05-20T10:00:50;20.13;;;8.80;;
48795;SDS011;34607;48.520;-1.330;2023-05-20T10:03:18;13.25;;;7.90;;
48795;SDS011;34607;48.520;-1.330;2023-05-20T10:05:50;16.73;;;8.85;;
48795;SDS011;34607;48.520;-1.330;2023-05-20T10:08:31;21.48;;;9.65;;
48795;SDS011;34607;48.520;-1.330;2023-05-20T10:13:49;14.23;;;8.43;;
48795;SDS011;34607;48.520;-1.330;2023-05-20T10:16:35;17.63;;;7.20;;
48795;SDS011;34607;48.520;-1.330;2023-05-20T10:19:11;16.38;;;8.43;;
48795;SDS011;34607;48.520;-1.330;2023-05-20T10:21:57;17.00;;;8.60;;
48795;SDS011;34607;48.520;-1.330;2023-05-20T10:24:30;16.60;;;7.68;;
48795;SDS011;34607;48.520;-1.330;2023-05-20T10:26:58;19.08;;;8.50;;
48795;SDS011;34607;48.520;-1.330;2023-05-20T10:29:27;16.00;;;8.15;;
48795;SDS011;34607;48.520;-1.330;2023-05-20T10:31:55;15.90;;;7.75;;
48795;SDS011;34607;48.520;-1.330;2023-05-20T10:34:22;17.13;;;8.18;;
48795;SDS011;34607;48.520;-1.330;2023-05-20T10:36:59;17.15;;;9.05;;
48795;SDS011;34607;48.520;-1.330;2023-05-20T10:39:26;17.60;;;8.63;;
48795;SDS011;34607;48.520;-1.330;2023-05-20T10:42:04;13.70;;;7.55;;
48795;SDS011;34607;48.520;-1.330;2023-05-20T10:44:41;14.60;;;6.78;;
48795;SDS011;34607;48.520;-1.330;2023-05-20T10:47:10;14.25;;;8.02;;
48795;SDS011;34607;48.520;-1.330;2023-05-20T10:49:39;20.00;;;7.57;;
48795;SDS011;34607;48.520;-1.330;2023-05-20T10:52:09;11.88;;;7.45;;
48795;SDS011;34607;48.520;-1.330;2023-05-20T10:54:41;15.13;;;7.13;;
48795;SDS011;34607;48.520;-1.330;2023-05-20T10:57:10;16.33;;;7.82;;
48795;SDS011;34607;48.520;-1.330;2023-05-20T10:59:37;13.60;;;7.13;;
48795;SDS011;34607;48.520;-1.330;2023-05-20T11:02:04;15.63;;;7.45;;
48795;SDS011;34607;48.520;-1.330;2023-05-20T11:04:32;16.58;;;7.35;;
48795;SDS011;34607;48.520;-1.330;2023-05-20T11:07:00;13.25;;;7.30;;
48795;SDS011;34607;48.520;-1.330;2023-05-20T11:09:27;11.38;;;6.13;;
48795;SDS011;34607;48.520;-1.330;2023-05-20T11:11:55;14.32;;;7.32;;
48795;SDS011;34607;48.520;-1.330;2023-05-20T11:14:22;15.15;;;8.15;;
48795;SDS011;34607;48.520;-1.330;2023-05-20T11:16:54;18.05;;;7.65;;
48795;SDS011;34607;48.520;-1.330;2023-05-20T11:19:22;11.75;;;6.57;;
48795;SDS011;34607;48.520;-1.330;2023-05-20T11:21:51;11.57;;;6.35;;
48795;SDS011;34607;48.520;-1.330;2023-05-20T11:24:22;15.07;;;6.13;;
48795;SDS011;34607;48.520;-1.330;2023-05-20T11:26:51;15.88;;;6.68;;
48795;SDS011;34607;48.520;-1.330;2023-05-20T11:29:18;9.23;;;5.13;;
48795;SDS011;34607;48.520;-1.330;2023-05-20T11:31:47;12.00;;;5.38;;
48795;SDS011;34607;48.520;-1.330;2023-05-20T11:34:15;12.75;;;5.72;;
48795;SDS011;34607;48.520;-1.330;2023-05-20T11:36:45;10.95;;;5.65;;
48795;SDS011;34607;48.520;-1.330;2023-05-20T11:39:13;13.07;;;5.95;;
48795;SDS011;34607;48.520;-1.330;2023-05-20T11:41:40;17.35;;;7.53;;
48795;SDS011;34607;48.520;-1.330;2023-05-20T11:44:09;12.18;;;6.05;;
48795;SDS011;34607;48.520;-1.330;2023-05-20T11:46:40;11.40;;;5.93;;
48795;SDS011;34607;48.520;-1.330;2023-05-20T11:49:09;13.80;;;5.72;;
48795;SDS011;34607;48.520;-1.330;2023-05-20T11:51:38;13.20;;;5.65;;
48795;SDS011;34607;48.520;-1.330;2023-05-20T11:54:06;15.63;;;5.85;;
48795;SDS011;34607;48.520;-1.330;2023-05-20T11:56:36;8.70;;;4.95;;
48795;SDS011;34607;48.520;-1.330;2023-05-20T11:59:06;10.52;;;5.57;;
48795;SDS011;34607;48.520;-1.330;2023-05-20T12:01:36;11.05;;;5.43;;
48795;SDS011;34607;48.520;-1.330;2023-05-20T12:04:05;14.75;;;5.35;;
48795;SDS011;34607;48.520;-1.330;2023-05-20T12:06:32;13.05;;;6.57;;
48795;SDS011;34607;48.520;-1.330;2023-05-20T12:09:00;11.13;;;5.88;;
48795;SDS011;34607;48.520;-1.330;2023-05-20T12:11:31;11.30;;;5.07;;
48795;SDS011;34607;48.520;-1.330;2023-05-20T12:14:00;13.95;;;6.07;;
48795;SDS011;34607;48.520;-1.330;2023-05-20T12:16:28;13.88;;;5.57;;
48795;SDS011;34607;48.520;-1.330;2023-05-20T12:18:56;14.30;;;6.38;;
48795;SDS011;34607;48.520;-1.330;2023-05-20T12:21:23;12.95;;;5.50;;
48795;SDS011;34607;48.520;-1.330;2023-05-20T12:23:50;15.95;;;6.10;;
48795;SDS011;34607;48.520;-1.330;2023-05-20T12:26:21;14.38;;;6.57;;
48795;SDS011;34607;48.520;-1.330;2023-05-20T12:28:49;13.45;;;5.57;;
48795;SDS011;34607;48.520;-1.330;2023-05-20T12:31:17;12.65;;;5.40;;
48795;SDS011;34607;48.520;-1.330;2023-05-20T12:33:45;8.15;;;4.85;;
48795;SDS011;34607;48.520;-1.330;2023-05-20T12:36:12;14.23;;;5.70;;
48795;SDS011;34607;48.520;-1.330;2023-05-20T12:38:40;12.40;;;5.55;;
48795;SDS011;34607;48.520;-1.330;2023-05-20T12:41:07;12.90;;;6.07;;
48795;SDS011;34607;48.520;-1.330;2023-05-20T12:43:34;14.80;;;5.97;;
48795;SDS011;34607;48.520;-1.330;2023-05-20T12:46:01;14.43;;;6.78;;
48795;SDS011;34607;48.520;-1.330;2023-05-20T12:48:30;15.20;;;5.65;;
48795;SDS011;34607;48.520;-1.330;2023-05-20T12:50:57;12.77;;;5.30;;
48795;SDS011;34607;48.520;-1.330;2023-05-20T12:53:24;15.52;;;5.97;;
48795;SDS011;34607;48.520;-1.330;2023-05-20T12:55:51;14.90;;;5.70;;
48795;SDS011;34607;48.520;-1.330;2023-05-20T12:58:18;10.73;;;5.88;;
48795;SDS011;34607;48.520;-1.330;2023-05-20T13:00:45;13.38;;;5.85;;
48795;SDS011;34607;48.520;-1.330;2023-05-20T13:03:12;10.15;;;5.40;;
48795;SDS011;34607;48.520;-1.330;2023-05-20T13:05:41;10.65;;;5.68;;
48795;SDS011;34607;48.520;-1.330;2023-05-20T13:08:08;13.48;;;5.57;;
48795;SDS011;34607;48.520;-1.330;2023-05-20T13:10:36;12.27;;;5.25;;
48795;SDS011;34607;48.520;-1.330;2023-05-20T13:13:04;13.02;;;5.35;;
48795;SDS011;34607;48.520;-1.330;2023-05-20T13:15:31;13.95;;;5.32;;
48795;SDS011;34607;48.520;-1.330;2023-05-20T13:17:58;13.00;;;5.85;;
48795;SDS011;34607;48.520;-1.330;2023-05-20T13:20:27;10.43;;;5.68;;
48795;SDS011;34607;48.520;-1.330;2023-05-20T13:22:56;14.32;;;5.25;;
48795;SDS011;34607;48.520;-1.330;2023-05-20T13:25:23;16.88;;;5.20;;
48795;SDS011;34607;48.520;-1.330;2023-05-20T13:27:50;12.10;;;5.40;;
48795;SDS011;34607;48.520;-1.330;2023-05-20T13:30:17;14.98;;;6.50;;
48795;SDS011;34607;48.520;-1.330;2023-05-20T13:32:44;11.18;;;5.25;;
48795;SDS011;34607;48.520;-1.330;2023-05-20T13:35:11;9.35;;;5.32;;
48795;SDS011;34607;48.520;-1.330;2023-05-20T13:37:38;15.18;;;5.75;;
48795;SDS011;34607;48.520;-1.330;2023-05-20T13:40:08;10.05;;;5.50;;
48795;SDS011;34607;48.520;-1.330;2023-05-20T13:42:35;9.00;;;5.32;;
48795;SDS011;34607;48.520;-1.330;2023-05-20T13:45:03;12.68;;;5.35;;
48795;SDS011;34607;48.520;-1.330;2023-05-20T13:47:30;10.30;;;4.78;;
48795;SDS011;34607;48.520;-1.330;2023-05-20T13:49:57;9.35;;;4.82;;
48795;SDS011;34607;48.520;-1.330;2023-05-20T13:52:24;12.80;;;4.85;;
48795;SDS011;34607;48.520;-1.330;2023-05-20T13:54:51;8.23;;;4.93;;
48795;SDS011;34607;48.520;-1.330;2023-05-20T13:57:20;12.85;;;5.28;;
48795;SDS011;34607;48.520;-1.330;2023-05-20T13:59:47;12.55;;;5.07;;
48795;SDS011;34607;48.520;-1.330;2023-05-20T14:02:14;9.27;;;4.20;;
48795;SDS011;34607;48.520;-1.330;2023-05-20T14:04:41;12.98;;;5.28;;
48795;SDS011;34607;48.520;-1.330;2023-05-20T14:07:11;8.18;;;4.22;;
48795;SDS011;34607;48.520;-1.330;2023-05-20T14:09:38;12.68;;;4.97;;
48795;SDS011;34607;48.520;-1.330;2023-05-20T14:12:05;10.73;;;5.35;;
48795;SDS011;34607;48.520;-1.330;2023-05-20T14:14:34;11.57;;;5.20;;
48795;SDS011;34607;48.520;-1.330;2023-05-20T14:17:01;14.48;;;5.10;;
48795;SDS011;34607;48.520;-1.330;2023-05-20T14:19:28;12.85;;;5.00;;
48795;SDS011;34607;48.520;-1.330;2023-05-20T14:21:55;11.05;;;6.10;;
48795;SDS011;34607;48.520;-1.330;2023-05-20T14:24:25;12.40;;;5.68;;
48795;SDS011;34607;48.520;-1.330;2023-05-20T14:26:52;13.55;;;4.75;;
48795;SDS011;34607;48.520;-1.330;2023-05-20T14:29:19;11.27;;;5.18;;
48795;SDS011;34607;48.520;-1.330;2023-05-20T14:31:47;12.18;;;4.80;;
48795;SDS011;34607;48.520;-1.330;2023-05-20T14:34:14;10.13;;;4.53;;
48795;SDS011;34607;48.520;-1.330;2023-05-20T14:36:41;13.10;;;5.07;;
48795;SDS011;34607;48.520;-1.330;2023-05-20T14:39:09;13.90;;;4.80;;
48795;SDS011;34607;48.520;-1.330;2023-05-20T14:41:36;12.75;;;5.40;;
48795;SDS011;34607;48.520;-1.330;2023-05-20T14:44:03;9.05;;;4.22;;
48795;SDS011;34607;48.520;-1.330;2023-05-20T14:46:30;9.65;;;4.57;;
48795;SDS011;34607;48.520;-1.330;2023-05-20T14:48:59;10.20;;;4.63;;
48795;SDS011;34607;48.520;-1.330;2023-05-20T14:51:26;11.63;;;5.45;;
48795;SDS011;34607;48.520;-1.330;2023-05-20T14:53:53;14.77;;;5.70;;
48795;SDS011;34607;48.520;-1.330;2023-05-20T14:56:20;13.82;;;6.43;;
48795;SDS011;34607;48.520;-1.330;2023-05-20T14:58:47;9.77;;;5.65;;
48795;SDS011;34607;48.520;-1.330;2023-05-20T15:01:14;13.15;;;5.13;;
48795;SDS011;34607;48.520;-1.330;2023-05-20T15:03:41;13.10;;;4.38;;
48795;SDS011;34607;48.520;-1.330;2023-05-20T15:06:10;15.43;;;5.70;;
48795;SDS011;34607;48.520;-1.330;2023-05-20T15:08:37;10.80;;;4.68;;
48795;SDS011;34607;48.520;-1.330;2023-05-20T15:11:04;9.65;;;4.50;;
48795;SDS011;34607;48.520;-1.330;2023-05-20T15:13:31;13.77;;;4.90;;
48795;SDS011;34607;48.520;-1.330;2023-05-20T15:15:58;9.88;;;4.82;;
48795;SDS011;34607;48.520;-1.330;2023-05-20T15:18:25;12.00;;;4.63;;
48795;SDS011;34607;48.520;-1.330;2023-05-20T15:20:52;7.95;;;4.80;;
48795;SDS011;34607;48.520;-1.330;2023-05-20T15:23:21;12.63;;;4.35;;
48795;SDS011;34607;48.520;-1.330;2023-05-20T15:25:48;13.18;;;5.47;;
48795;SDS011;34607;48.520;-1.330;2023-05-20T15:28:15;10.75;;;4.88;;
48795;SDS011;34607;48.520;-1.330;2023-05-20T15:30:43;9.20;;;4.22;;
48795;SDS011;34607;48.520;-1.330;2023-05-20T15:33:11;10.52;;;4.63;;
48795;SDS011;34607;48.520;-1.330;2023-05-20T15:35:38;13.00;;;4.80;;
48795;SDS011;34607;48.520;-1.330;2023-05-20T15:38:05;11.00;;;4.50;;
48795;SDS011;34607;48.520;-1.330;2023-05-20T15:40:33;10.43;;;4.72;;
48795;SDS011;34607;48.520;-1.330;2023-05-20T15:43:01;11.05;;;5.45;;
48795;SDS011;34607;48.520;-1.330;2023-05-20T15:45:29;10.02;;;5.50;;
48795;SDS011;34607;48.520;-1.330;2023-05-20T15:47:56;12.23;;;4.10;;
48795;SDS011;34607;48.520;-1.330;2023-05-20T15:50:23;10.05;;;4.85;;
48795;SDS011;34607;48.520;-1.330;2023-05-20T15:52:52;9.90;;;4.22;;
48795;SDS011;34607;48.520;-1.330;2023-05-20T15:55:20;13.38;;;4.70;;
48795;SDS011;34607;48.520;-1.330;2023-05-20T15:57:48;14.15;;;4.47;;
48795;SDS011;34607;48.520;-1.330;2023-05-20T16:00:16;12.57;;;4.50;;
48795;SDS011;34607;48.520;-1.330;2023-05-20T16:02:44;11.73;;;4.75;;
48795;SDS011;34607;48.520;-1.330;2023-05-20T16:05:12;12.57;;;4.53;;
48795;SDS011;34607;48.520;-1.330;2023-05-20T16:07:40;10.25;;;4.32;;
48795;SDS011;34607;48.520;-1.330;2023-05-20T16:10:07;13.27;;;4.72;;
48795;SDS011;34607;48.520;-1.330;2023-05-20T16:12:35;12.02;;;3.97;;
48795;SDS011;34607;48.520;-1.330;2023-05-20T16:15:04;11.10;;;4.47;;
48795;SDS011;34607;48.520;-1.330;2023-05-20T16:17:32;10.57;;;4.00;;
48795;SDS011;34607;48.520;-1.330;2023-05-20T16:19:59;8.57;;;4.47;;
48795;SDS011;34607;48.520;-1.330;2023-05-20T16:22:26;9.38;;;4.00;;
48795;SDS011;34607;48.520;-1.330;2023-05-20T16:24:53;10.30;;;3.85;;
48795;SDS011;34607;48.520;-1.330;2023-05-20T16:27:20;8.85;;;3.78;;
48795;SDS011;34607;48.520;-1.330;2023-05-20T16:29:48;8.73;;;4.25;;
48795;SDS011;34607;48.520;-1.330;2023-05-20T16:32:17;9.27;;;3.78;;
48795;SDS011;34607;48.520;-1.330;2023-05-20T16:34:46;10.85;;;3.50;;
48795;SDS011;34607;48.520;-1.330;2023-05-20T16:37:13;9.00;;;4.22;;
48795;SDS011;34607;48.520;-1.330;2023-05-20T16:39:40;10.55;;;5.05;;
48795;SDS011;34607;48.520;-1.330;2023-05-20T16:42:07;11.73;;;4.88;;
48795;SDS011;34607;48.520;-1.330;2023-05-20T16:44:34;8.18;;;5.03;;
48795;SDS011;34607;48.520;-1.330;2023-05-20T16:47:03;12.50;;;6.25;;
48795;SDS011;34607;48.520;-1.330;2023-05-20T16:49:32;12.32;;;4.15;;
48795;SDS011;34607;48.520;-1.330;2023-05-20T16:51:59;12.20;;;4.53;;
48795;SDS011;34607;48.520;-1.330;2023-05-20T16:54:26;11.10;;;3.67;;
48795;SDS011;34607;48.520;-1.330;2023-05-20T16:56:53;10.52;;;3.85;;
48795;SDS011;34607;48.520;-1.330;2023-05-20T16:59:20;8.65;;;4.03;;
48795;SDS011;34607;48.520;-1.330;2023-05-20T17:01:49;7.50;;;3.30;;
48795;SDS011;34607;48.520;-1.330;2023-05-20T17:04:16;6.45;;;3.35;;
48795;SDS011;34607;48.520;-1.330;2023-05-20T17:06:44;7.88;;;3.50;;
48795;SDS011;34607;48.520;-1.330;2023-05-20T17:09:14;10.82;;;3.33;;
48795;SDS011;34607;48.520;-1.330;2023-05-20T17:11:41;6.75;;;3.58;;
48795;SDS011;34607;48.520;-1.330;2023-05-20T17:14:08;7.53;;;3.75;;
48795;SDS011;34607;48.520;-1.330;2023-05-20T17:16:35;8.15;;;2.90;;
48795;SDS011;34607;48.520;-1.330;2023-05-20T17:19:02;6.22;;;3.05;;
48795;SDS011;34607;48.520;-1.330;2023-05-20T17:21:29;7.80;;;3.80;;
48795;SDS011;34607;48.520;-1.330;2023-05-20T17:23:58;7.65;;;3.15;;
48795;SDS011;34607;48.520;-1.330;2023-05-20T17:26:25;13.10;;;3.88;;
48795;SDS011;34607;48.520;-1.330;2023-05-20T17:28:52;8.20;;;4.40;;
48795;SDS011;34607;48.520;-1.330;2023-05-20T17:31:19;6.47;;;3.67;;
48795;SDS011;34607;48.520;-1.330;2023-05-20T17:33:46;7.63;;;3.70;;
48795;SDS011;34607;48.520;-1.330;2023-05-20T17:36:13;15.00;;;4.05;;
48795;SDS011;34607;48.520;-1.330;2023-05-20T17:38:40;10.50;;;4.05;;
48795;SDS011;34607;48.520;-1.330;2023-05-20T17:41:09;5.57;;;3.05;;
48795;SDS011;34607;48.520;-1.330;2023-05-20T17:43:36;8.27;;;3.65;;
48795;SDS011;34607;48.520;-1.330;2023-05-20T17:46:03;6.28;;;3.05;;
48795;SDS011;34607;48.520;-1.330;2023-05-20T17:48:30;8.30;;;4.05;;
48795;SDS011;34607;48.520;-1.330;2023-05-20T17:50:57;10.82;;;4.32;;
48795;SDS011;34607;48.520;-1.330;2023-05-20T17:53:24;9.23;;;3.97;;
48795;SDS011;34607;48.520;-1.330;2023-05-20T17:55:51;7.57;;;3.63;;
48795;SDS011;34607;48.520;-1.330;2023-05-20T17:58:20;5.60;;;3.80;;
48795;SDS011;34607;48.520;-1.330;2023-05-20T18:00:49;7.97;;;3.78;;
48795;SDS011;34607;48.520;-1.330;2023-05-20T18:03:16;9.57;;;4.32;;
48795;SDS011;34607;48.520;-1.330;2023-05-20T18:05:44;8.48;;;3.80;;
48795;SDS011;34607;48.520;-1.330;2023-05-20T18:08:11;8.75;;;3.00;;
48795;SDS011;34607;48.520;-1.330;2023-05-20T18:10:38;8.98;;;3.53;;
48795;SDS011;34607;48.520;-1.330;2023-05-20T18:13:05;5.15;;;2.95;;
48795;SDS011;34607;48.520;-1.330;2023-05-20T18:15:34;6.93;;;3.00;;
48795;SDS011;34607;48.520;-1.330;2023-05-20T18:18:01;11.25;;;6.68;;
48795;SDS011;34607;48.520;-1.330;2023-05-20T18:20:28;8.60;;;5.03;;
48795;SDS011;34607;48.520;-1.330;2023-05-20T18:22:55;7.55;;;4.13;;
48795;SDS011;34607;48.520;-1.330;2023-05-20T18:25:23;8.68;;;3.20;;
48795;SDS011;34607;48.520;-1.330;2023-05-20T18:27:50;7.47;;;2.85;;
48795;SDS011;34607;48.520;-1.330;2023-05-20T18:30:17;6.22;;;3.00;;
48795;SDS011;34607;48.520;-1.330;2023-05-20T18:32:46;7.93;;;2.92;;
48795;SDS011;34607;48.520;-1.330;2023-05-20T18:35:13;5.35;;;3.28;;
48795;SDS011;34607;48.520;-1.330;2023-05-20T18:37:41;7.75;;;3.22;;
48795;SDS011;34607;48.520;-1.330;2023-05-20T18:40:08;9.05;;;2.75;;
48795;SDS011;34607;48.520;-1.330;2023-05-20T18:42:35;8.35;;;3.15;;
48795;SDS011;34607;48.520;-1.330;2023-05-20T18:45:03;6.90;;;3.47;;
48795;SDS011;34607;48.520;-1.330;2023-05-20T18:47:30;7.20;;;2.80;;
48795;SDS011;34607;48.520;-1.330;2023-05-20T18:49:59;6.30;;;2.72;;
48795;SDS011;34607;48.520;-1.330;2023-05-20T18:52:26;9.15;;;3.50;;
48795;SDS011;34607;48.520;-1.330;2023-05-20T18:54:53;9.15;;;4.90;;
48795;SDS011;34607;48.520;-1.330;2023-05-20T18:57:20;8.02;;;3.50;;
48795;SDS011;34607;48.520;-1.330;2023-05-20T18:59:47;7.15;;;3.83;;
48795;SDS011;34607;48.520;-1.330;2023-05-20T19:02:14;6.13;;;3.75;;
48795;SDS011;34607;48.520;-1.330;2023-05-20T19:04:41;5.95;;;3.72;;
48795;SDS011;34607;48.520;-1.330;2023-05-20T19:07:10;5.93;;;2.67;;
48795;SDS011;34607;48.520;-1.330;2023-05-20T19:09:37;6.53;;;3.50;;
48795;SDS011;34607;48.520;-1.330;2023-05-20T19:12:04;6.85;;;3.10;;
48795;SDS011;34607;48.520;-1.330;2023-05-20T19:14:32;3.20;;;2.60;;
48795;SDS011;34607;48.520;-1.330;2023-05-20T19:16:59;5.68;;;3.25;;
48795;SDS011;34607;48.520;-1.330;2023-05-20T19:19:26;4.45;;;2.67;;
48795;SDS011;34607;48.520;-1.330;2023-05-20T19:21:53;5.55;;;2.90;;
48795;SDS011;34607;48.520;-1.330;2023-05-20T19:24:21;5.95;;;2.83;;
48795;SDS011;34607;48.520;-1.330;2023-05-20T19:26:49;7.05;;;2.72;;
48795;SDS011;34607;48.520;-1.330;2023-05-20T19:29:16;7.40;;;3.40;;
48795;SDS011;34607;48.520;-1.330;2023-05-20T19:31:43;8.07;;;2.97;;
48795;SDS011;34607;48.520;-1.330;2023-05-20T19:34:10;5.97;;;2.95;;
48795;SDS011;34607;48.520;-1.330;2023-05-20T19:36:37;7.38;;;4.00;;
48795;SDS011;34607;48.520;-1.330;2023-05-20T19:39:06;5.90;;;3.85;;
48795;SDS011;34607;48.520;-1.330;2023-05-20T19:41:35;7.00;;;3.53;;
48795;SDS011;34607;48.520;-1.330;2023-05-20T19:44:03;7.88;;;4.63;;
48795;SDS011;34607;48.520;-1.330;2023-05-20T19:46:30;10.43;;;4.55;;
48795;SDS011;34607;48.520;-1.330;2023-05-20T19:48:58;5.63;;;4.35;;
48795;SDS011;34607;48.520;-1.330;2023-05-20T19:51:25;8.48;;;3.42;;
48795;SDS011;34607;48.520;-1.330;2023-05-20T19:53:52;6.60;;;3.78;;
48795;SDS011;34607;48.520;-1.330;2023-05-20T19:56:19;7.10;;;3.00;;
48795;SDS011;34607;48.520;-1.330;2023-05-20T19:58:49;5.88;;;3.30;;
48795;SDS011;34607;48.520;-1.330;2023-05-20T20:01:16;7.45;;;4.30;;
48795;SDS011;34607;48.520;-1.330;2023-05-20T20:03:44;8.10;;;4.10;;
48795;SDS011;34607;48.520;-1.330;2023-05-20T20:06:11;15.32;;;4.30;;
48795;SDS011;34607;48.520;-1.330;2023-05-20T20:08:38;10.25;;;4.63;;
48795;SDS011;34607;48.520;-1.330;2023-05-20T20:11:06;10.18;;;5.35;;
48795;SDS011;34607;48.520;-1.330;2023-05-20T20:13:33;8.70;;;6.10;;
48795;SDS011;34607;48.520;-1.330;2023-05-20T20:16:02;6.00;;;4.43;;
48795;SDS011;34607;48.520;-1.330;2023-05-20T20:18:30;7.75;;;4.85;;
48795;SDS011;34607;48.520;-1.330;2023-05-20T20:20:57;7.35;;;4.70;;
48795;SDS011;34607;48.520;-1.330;2023-05-20T20:23:29;9.43;;;4.03;;
48795;SDS011;34607;48.520;-1.330;2023-05-20T20:25:56;14.02;;;5.60;;
48795;SDS011;34607;48.520;-1.330;2023-05-20T20:28:23;6.45;;;3.70;;
48795;SDS011;34607;48.520;-1.330;2023-05-20T20:30:50;6.32;;;3.75;;
48795;SDS011;34607;48.520;-1.330;2023-05-20T20:33:19;7.03;;;4.00;;
48795;SDS011;34607;48.520;-1.330;2023-05-20T20:35:46;8.20;;;3.97;;
48795;SDS011;34607;48.520;-1.330;2023-05-20T20:38:13;7.57;;;3.30;;
48795;SDS011;34607;48.520;-1.330;2023-05-20T20:40:40;8.43;;;4.18;;
48795;SDS011;34607;48.520;-1.330;2023-05-20T20:43:09;7.82;;;3.85;;
48795;SDS011;34607;48.520;-1.330;2023-05-20T20:45:42;7.30;;;4.03;;
48795;SDS011;34607;48.520;-1.330;2023-05-20T20:48:09;7.25;;;4.72;;
48795;SDS011;34607;48.520;-1.330;2023-05-20T20:50:43;9.13;;;5.13;;
48795;SDS011;34607;48.520;-1.330;2023-05-20T20:53:12;10.68;;;4.63;;
48795;SDS011;34607;48.520;-1.330;2023-05-20T20:55:40;11.55;;;5.22;;
48795;SDS011;34607;48.520;-1.330;2023-05-20T20:58:07;8.73;;;5.05;;
48795;SDS011;34607;48.520;-1.330;2023-05-20T21:00:35;13.43;;;5.13;;
48795;SDS011;34607;48.520;-1.330;2023-05-20T21:03:04;7.80;;;4.72;;
48795;SDS011;34607;48.520;-1.330;2023-05-20T21:05:32;8.50;;;4.32;;
48795;SDS011;34607;48.520;-1.330;2023-05-20T21:08:01;12.57;;;5.18;;
48795;SDS011;34607;48.520;-1.330;2023-05-20T21:10:28;13.27;;;5.75;;
48795;SDS011;34607;48.520;-1.330;2023-05-20T21:12:55;7.75;;;4.03;;
48795;SDS011;34607;48.520;-1.330;2023-05-20T21:15:23;13.65;;;5.07;;
48795;SDS011;34607;48.520;-1.330;2023-05-20T21:17:51;8.77;;;4.07;;
48795;SDS011;34607;48.520;-1.330;2023-05-20T21:20:18;9.93;;;4.22;;
48795;SDS011;34607;48.520;-1.330;2023-05-20T21:22:45;10.57;;;4.75;;
48795;SDS011;34607;48.520;-1.330;2023-05-20T21:25:14;9.82;;;4.20;;
48795;SDS011;34607;48.520;-1.330;2023-05-20T21:27:41;8.77;;;4.43;;
48795;SDS011;34607;48.520;-1.330;2023-05-20T21:30:08;9.13;;;3.85;;
